sensor_id;sensor_type;location;lat;lon;timestamp;pressure;altitude;pressure_sealevel;temperature;humidity
47913;BME280;33676;51.006;17.180;2023-05-11T00:02:07;100247.42;;;14.14;62.68
47913;BME280;33676;51.006;17.180;2023-05-11T00:04:35;100245.59;;;14.09;62.55
47913;BME280;33676;51.006;17.180;2023-05-11T00:07:04;100246.50;;;14.05;62.64
47913;BME280;33676;51.006;17.180;2023-05-11T00:09:32;100243.13;;;14.02;62.75
47913;BME280;33676;51.006;17.180;2023-05-11T00:12:01;100247.41;;;13.98;62.69
47913;BME280;33676;51.006;17.180;2023-05-11T00:14:30;100248.70;;;13.94;62.83
47913;BME280;33676;51.006;17.180;2023-05-11T00:16:59;100250.89;;;13.88;62.94
47913;BME280;33676;51.006;17.180;2023-05-11T00:19:27;100255.26;;;13.83;62.95
47913;BME280;33676;51.006;17.180;2023-05-11T00:21:58;100254.15;;;13.76;62.98
47913;BME280;33676;51.006;17.180;2023-05-11T00:24:27;100255.77;;;13.70;63.08
47913;BME280;33676;51.006;17.180;2023-05-11T00:26:55;100252.16;;;13.63;63.15
47913;BME280;33676;51.006;17.180;2023-05-11T00:29:24;100249.73;;;13.57;63.20
47913;BME280;33676;51.006;17.180;2023-05-11T00:31:52;100253.17;;;13.52;63.28
47913;BME280;33676;51.006;17.180;2023-05-11T00:34:21;100251.63;;;13.46;63.26
47913;BME280;33676;51.006;17.180;2023-05-11T00:36:49;100252.44;;;13.41;63.34
47913;BME280;33676;51.006;17.180;2023-05-11T00:39:18;100251.02;;;13.36;63.36
47913;BME280;33676;51.006;17.180;2023-05-11T00:41:46;100252.59;;;13.32;63.59
47913;BME280;33676;51.006;17.180;2023-05-11T00:44:15;100251.54;;;13.28;63.59
47913;BME280;33676;51.006;17.180;2023-05-11T00:46:43;100254.77;;;13.25;63.65
47913;BME280;33676;51.006;17.180;2023-05-11T00:49:12;100253.80;;;13.22;63.72
47913;BME280;33676;51.006;17.180;2023-05-11T00:51:44;100252.44;;;13.19;63.92
47913;BME280;33676;51.006;17.180;2023-05-11T00:54:13;100252.59;;;13.18;63.93
47913;BME280;33676;51.006;17.180;2023-05-11T00:56:43;100255.33;;;13.15;64.16
47913;BME280;33676;51.006;17.180;2023-05-11T00:59:11;100255.59;;;13.11;64.14
47913;BME280;33676;51.006;17.180;2023-05-11T01:01:41;100254.97;;;13.09;64.14
47913;BME280;33676;51.006;17.180;2023-05-11T01:04:09;100256.42;;;13.08;64.23
47913;BME280;33676;51.006;17.180;2023-05-11T01:13:12;100254.09;;;13.03;64.57
47913;BME280;33676;51.006;17.180;2023-05-11T01:15:53;100255.69;;;13.01;64.64
47913;BME280;33676;51.006;17.180;2023-05-11T01:18:48;100255.59;;;13.00;64.79
47913;BME280;33676;51.006;17.180;2023-05-11T01:21:18;100256.71;;;12.98;64.91
47913;BME280;33676;51.006;17.180;2023-05-11T01:33:32;100256.91;;;12.81;65.25
47913;BME280;33676;51.006;17.180;2023-05-11T01:36:06;100255.15;;;12.77;65.37
47913;BME280;33676;51.006;17.180;2023-05-11T01:38:40;100253.90;;;12.74;65.51
47913;BME280;33676;51.006;17.180;2023-05-11T01:41:19;100255.05;;;12.73;65.54
47913;BME280;33676;51.006;17.180;2023-05-11T01:43:54;100254.54;;;12.70;65.77
47913;BME280;33676;51.006;17.180;2023-05-11T01:46:26;100254.90;;;12.68;65.92
47913;BME280;33676;51.006;17.180;2023-05-11T01:48:58;100257.19;;;12.66;65.94
47913;BME280;33676;51.006;17.180;2023-05-11T01:51:33;100259.32;;;12.66;66.10
47913;BME280;33676;51.006;17.180;2023-05-11T01:54:05;100260.80;;;12.63;66.08
47913;BME280;33676;51.006;17.180;2023-05-11T01:56:36;100264.86;;;12.58;66.07
47913;BME280;33676;51.006;17.180;2023-05-11T01:59:05;100267.48;;;12.56;66.21
47913;BME280;33676;51.006;17.180;2023-05-11T02:01:34;100269.23;;;12.54;66.37
47913;BME280;33676;51.006;17.180;2023-05-11T02:04:04;100268.95;;;12.53;66.47
47913;BME280;33676;51.006;17.180;2023-05-11T02:06:36;100269.78;;;12.52;66.54
47913;BME280;33676;51.006;17.180;2023-05-11T02:09:07;100270.77;;;12.51;66.66
47913;BME280;33676;51.006;17.180;2023-05-11T02:11:39;100270.38;;;12.49;66.69
47913;BME280;33676;51.006;17.180;2023-05-11T02:14:10;100272.01;;;12.48;66.81
47913;BME280;33676;51.006;17.180;2023-05-11T02:16:39;100271.94;;;12.48;66.92
47913;BME280;33676;51.006;17.180;2023-05-11T02:19:08;100272.91;;;12.46;66.90
47913;BME280;33676;51.006;17.180;2023-05-11T02:21:40;100274.21;;;12.46;67.02
47913;BME280;33676;51.006;17.180;2023-05-11T02:24:11;100275.46;;;12.45;67.00
47913;BME280;33676;51.006;17.180;2023-05-11T02:26:39;100275.37;;;12.45;67.15
47913;BME280;33676;51.006;17.180;2023-05-11T02:29:08;100276.83;;;12.44;67.28
47913;BME280;33676;51.006;17.180;2023-05-11T02:31:43;100279.55;;;12.43;67.23
47913;BME280;33676;51.006;17.180;2023-05-11T02:34:38;100278.41;;;12.42;67.29
47913;BME280;33676;51.006;17.180;2023-05-11T02:37:15;100277.14;;;12.40;67.28
47913;BME280;33676;51.006;17.180;2023-05-11T02:39:53;100275.17;;;12.39;67.43
47913;BME280;33676;51.006;17.180;2023-05-11T02:42:25;100275.61;;;12.38;67.48
47913;BME280;33676;51.006;17.180;2023-05-11T02:45:04;100275.63;;;12.38;67.55
47913;BME280;33676;51.006;17.180;2023-05-11T02:47:52;100272.58;;;12.36;67.57
47913;BME280;33676;51.006;17.180;2023-05-11T02:50:23;100274.90;;;12.34;67.65
47913;BME280;33676;51.006;17.180;2023-05-11T02:52:55;100275.66;;;12.31;67.58
47913;BME280;33676;51.006;17.180;2023-05-11T02:55:27;100277.58;;;12.29;67.66
47913;BME280;33676;51.006;17.180;2023-05-11T02:57:56;100276.14;;;12.27;67.63
47913;BME280;33676;51.006;17.180;2023-05-11T03:00:25;100276.43;;;12.26;67.72
47913;BME280;33676;51.006;17.180;2023-05-11T03:02:54;100275.92;;;12.26;67.94
47913;BME280;33676;51.006;17.180;2023-05-11T03:05:23;100275.98;;;12.25;67.96
47913;BME280;33676;51.006;17.180;2023-05-11T03:07:56;100275.09;;;12.23;68.03
47913;BME280;33676;51.006;17.180;2023-05-11T03:10:27;100273.27;;;12.22;68.16
47913;BME280;33676;51.006;17.180;2023-05-11T03:12:57;100279.91;;;12.20;68.06
47913;BME280;33676;51.006;17.180;2023-05-11T03:15:26;100278.48;;;12.18;68.07
47913;BME280;33676;51.006;17.180;2023-05-11T03:17:56;100279.50;;;12.17;68.13
47913;BME280;33676;51.006;17.180;2023-05-11T03:20:26;100279.52;;;12.15;68.14
47913;BME280;33676;51.006;17.180;2023-05-11T03:22:56;100279.27;;;12.11;68.03
47913;BME280;33676;51.006;17.180;2023-05-11T03:25:25;100281.88;;;12.09;68.13
47913;BME280;33676;51.006;17.180;2023-05-11T03:27:55;100281.46;;;12.08;68.30
47913;BME280;33676;51.006;17.180;2023-05-11T03:30:26;100280.88;;;12.07;68.33
47913;BME280;33676;51.006;17.180;2023-05-11T03:32:55;100282.04;;;12.06;68.43
47913;BME280;33676;51.006;17.180;2023-05-11T03:35:28;100286.59;;;12.04;68.47
47913;BME280;33676;51.006;17.180;2023-05-11T03:37:58;100284.02;;;12.01;68.58
47913;BME280;33676;51.006;17.180;2023-05-11T03:40:28;100282.95;;;11.99;68.66
47913;BME280;33676;51.006;17.180;2023-05-11T03:43:01;100283.77;;;11.97;68.73
47913;BME280;33676;51.006;17.180;2023-05-11T03:45:30;100284.61;;;11.96;68.92
47913;BME280;33676;51.006;17.180;2023-05-11T03:48:00;100283.95;;;11.96;69.01
47913;BME280;33676;51.006;17.180;2023-05-11T03:50:31;100281.51;;;11.95;69.14
47913;BME280;33676;51.006;17.180;2023-05-11T03:53:01;100279.73;;;11.96;69.24
47913;BME280;33676;51.006;17.180;2023-05-11T03:55:31;100281.55;;;11.95;69.36
47913;BME280;33676;51.006;17.180;2023-05-11T03:57:59;100281.84;;;11.96;69.28
47913;BME280;33676;51.006;17.180;2023-05-11T04:00:31;100283.20;;;11.96;69.55
47913;BME280;33676;51.006;17.180;2023-05-11T04:03:04;100285.60;;;11.97;69.72
47913;BME280;33676;51.006;17.180;2023-05-11T04:05:33;100284.77;;;11.96;69.78
47913;BME280;33676;51.006;17.180;2023-05-11T04:08:03;100283.88;;;11.96;69.71
47913;BME280;33676;51.006;17.180;2023-05-11T04:10:32;100285.98;;;11.98;69.92
47913;BME280;33676;51.006;17.180;2023-05-11T04:13:01;100286.29;;;12.01;70.06
47913;BME280;33676;51.006;17.180;2023-05-11T04:15:30;100290.61;;;12.03;70.11
47913;BME280;33676;51.006;17.180;2023-05-11T04:17:58;100285.98;;;12.06;70.11
47913;BME280;33676;51.006;17.180;2023-05-11T04:20:27;100287.11;;;12.09;70.20
47913;BME280;33676;51.006;17.180;2023-05-11T04:22:55;100288.77;;;12.13;70.23
47913;BME280;33676;51.006;17.180;2023-05-11T04:25:24;100291.62;;;12.16;70.27
47913;BME280;33676;51.006;17.180;2023-05-11T04:27:53;100288.21;;;12.19;70.26
47913;BME280;33676;51.006;17.180;2023-05-11T04:30:22;100286.40;;;12.22;70.21
47913;BME280;33676;51.006;17.180;2023-05-11T04:32:50;100290.66;;;12.26;70.36
47913;BME280;33676;51.006;17.180;2023-05-11T04:35:19;100288.98;;;12.29;70.47
47913;BME280;33676;51.006;17.180;2023-05-11T04:37:49;100294.25;;;12.31;70.43
47913;BME280;33676;51.006;17.180;2023-05-11T04:40:19;100292.92;;;12.34;70.51
47913;BME280;33676;51.006;17.180;2023-05-11T04:42:49;100297.42;;;12.39;70.56
47913;BME280;33676;51.006;17.180;2023-05-11T04:45:18;100295.16;;;12.45;70.51
47913;BME280;33676;51.006;17.180;2023-05-11T04:47:47;100295.77;;;12.49;70.57
47913;BME280;33676;51.006;17.180;2023-05-11T04:50:15;100296.21;;;12.56;70.80
47913;BME280;33676;51.006;17.180;2023-05-11T04:52:44;100300.88;;;12.64;70.82
47913;BME280;33676;51.006;17.180;2023-05-11T04:55:14;100304.83;;;12.73;70.95
47913;BME280;33676;51.006;17.180;2023-05-11T04:57:43;100303.83;;;12.82;71.08
47913;BME280;33676;51.006;17.180;2023-05-11T05:00:12;100295.54;;;12.93;71.04
47913;BME280;33676;51.006;17.180;2023-05-11T05:02:40;100298.54;;;13.02;71.00
47913;BME280;33676;51.006;17.180;2023-05-11T05:05:09;100300.52;;;13.09;70.87
47913;BME280;33676;51.006;17.180;2023-05-11T05:07:37;100304.27;;;13.17;70.82
47913;BME280;33676;51.006;17.180;2023-05-11T05:10:06;100296.92;;;13.25;70.80
47913;BME280;33676;51.006;17.180;2023-05-11T05:12:36;100302.41;;;13.34;70.82
47913;BME280;33676;51.006;17.180;2023-05-11T05:15:06;100307.23;;;13.43;70.77
47913;BME280;33676;51.006;17.180;2023-05-11T05:17:34;100305.86;;;13.50;70.74
47913;BME280;33676;51.006;17.180;2023-05-11T05:21:16;100313.80;;;13.65;70.55
47913;BME280;33676;51.006;17.180;2023-05-11T05:23:45;100309.83;;;13.71;70.59
47913;BME280;33676;51.006;17.180;2023-05-11T05:26:13;100303.67;;;13.78;70.26
47913;BME280;33676;51.006;17.180;2023-05-11T05:28:42;100307.08;;;13.87;70.32
47913;BME280;33676;51.006;17.180;2023-05-11T05:31:11;100304.61;;;13.95;70.10
47913;BME280;33676;51.006;17.180;2023-05-11T05:33:39;100307.89;;;14.03;69.99
47913;BME280;33676;51.006;17.180;2023-05-11T05:36:07;100314.66;;;14.11;69.78
47913;BME280;33676;51.006;17.180;2023-05-11T05:38:36;100320.04;;;14.18;69.57
47913;BME280;33676;51.006;17.180;2023-05-11T05:44:10;100313.38;;;14.35;69.31
47913;BME280;33676;51.006;17.180;2023-05-11T05:46:39;100324.39;;;14.41;69.24
47913;BME280;33676;51.006;17.180;2023-05-11T05:49:07;100330.21;;;14.47;69.08
47913;BME280;33676;51.006;17.180;2023-05-11T05:51:36;100326.46;;;14.55;69.26
47913;BME280;33676;51.006;17.180;2023-05-11T05:54:04;100330.05;;;14.66;69.50
47913;BME280;33676;51.006;17.180;2023-05-11T05:56:33;100330.27;;;14.74;69.51
47913;BME280;33676;51.006;17.180;2023-05-11T05:59:02;100327.20;;;14.82;69.34
47913;BME280;33676;51.006;17.180;2023-05-11T06:01:30;100323.52;;;14.86;69.19
47913;BME280;33676;51.006;17.180;2023-05-11T06:03:59;100329.17;;;14.86;69.00
47913;BME280;33676;51.006;17.180;2023-05-11T06:06:28;100329.30;;;14.86;68.91
47913;BME280;33676;51.006;17.180;2023-05-11T06:08:56;100331.55;;;14.86;68.97
47913;BME280;33676;51.006;17.180;2023-05-11T06:11:24;100327.09;;;14.85;69.09
47913;BME280;33676;51.006;17.180;2023-05-11T06:13:53;100326.66;;;14.86;69.20
47913;BME280;33676;51.006;17.180;2023-05-11T06:16:22;100327.36;;;14.86;69.12
47913;BME280;33676;51.006;17.180;2023-05-11T06:18:52;100326.67;;;14.84;69.01
47913;BME280;33676;51.006;17.180;2023-05-11T06:21:21;100329.20;;;14.83;68.96
47913;BME280;33676;51.006;17.180;2023-05-11T06:23:50;100328.87;;;14.85;69.07
47913;BME280;33676;51.006;17.180;2023-05-11T06:26:19;100335.92;;;14.87;69.28
47913;BME280;33676;51.006;17.180;2023-05-11T06:28:54;100333.08;;;14.89;69.38
47913;BME280;33676;51.006;17.180;2023-05-11T06:31:24;100328.81;;;14.93;69.50
47913;BME280;33676;51.006;17.180;2023-05-11T06:33:55;100330.57;;;14.97;69.51
47913;BME280;33676;51.006;17.180;2023-05-11T06:36:23;100335.22;;;15.02;69.44
47913;BME280;33676;51.006;17.180;2023-05-11T06:38:52;100335.95;;;15.08;69.37
47913;BME280;33676;51.006;17.180;2023-05-11T06:41:21;100327.51;;;15.15;69.45
47913;BME280;33676;51.006;17.180;2023-05-11T06:43:49;100333.16;;;15.23;69.39
47913;BME280;33676;51.006;17.180;2023-05-11T06:46:18;100329.23;;;15.34;69.59
47913;BME280;33676;51.006;17.180;2023-05-11T06:48:47;100333.83;;;15.47;69.25
47913;BME280;33676;51.006;17.180;2023-05-11T06:51:23;100330.16;;;15.57;69.18
47913;BME280;33676;51.006;17.180;2023-05-11T06:53:51;100329.69;;;15.67;69.14
47913;BME280;33676;51.006;17.180;2023-05-11T06:56:20;100328.15;;;15.79;69.19
47913;BME280;33676;51.006;17.180;2023-05-11T06:58:49;100329.05;;;15.92;69.13
47913;BME280;33676;51.006;17.180;2023-05-11T07:01:17;100333.00;;;16.05;69.16
47913;BME280;33676;51.006;17.180;2023-05-11T07:03:45;100330.88;;;16.24;69.14
47913;BME280;33676;51.006;17.180;2023-05-11T07:06:16;100335.17;;;16.46;69.32
47913;BME280;33676;51.006;17.180;2023-05-11T07:20:51;100328.73;;;17.65;68.25
47913;BME280;33676;51.006;17.180;2023-05-11T07:23:19;100324.18;;;17.91;68.25
47913;BME280;33676;51.006;17.180;2023-05-11T07:25:48;100322.70;;;18.17;67.89
47913;BME280;33676;51.006;17.180;2023-05-11T07:28:16;100325.81;;;18.43;67.68
47913;BME280;33676;51.006;17.180;2023-05-11T07:30:46;100328.11;;;18.68;67.51
47913;BME280;33676;51.006;17.180;2023-05-11T07:33:15;100328.27;;;18.90;67.39
47913;BME280;33676;51.006;17.180;2023-05-11T07:35:44;100327.02;;;19.12;67.02
47913;BME280;33676;51.006;17.180;2023-05-11T07:38:12;100327.04;;;19.30;66.82
47913;BME280;33676;51.006;17.180;2023-05-11T07:40:41;100327.77;;;19.48;66.59
47913;BME280;33676;51.006;17.180;2023-05-11T07:43:09;100332.94;;;19.65;66.36
47913;BME280;33676;51.006;17.180;2023-05-11T07:45:39;100332.52;;;19.79;65.88
47913;BME280;33676;51.006;17.180;2023-05-11T07:48:07;100330.95;;;19.85;65.48
47913;BME280;33676;51.006;17.180;2023-05-11T07:50:36;100331.56;;;19.97;65.30
47913;BME280;33676;51.006;17.180;2023-05-11T07:53:05;100329.88;;;20.04;64.95
47913;BME280;33676;51.006;17.180;2023-05-11T07:55:33;100336.13;;;20.12;64.67
47913;BME280;33676;51.006;17.180;2023-05-11T07:58:01;100331.70;;;20.20;64.02
47913;BME280;33676;51.006;17.180;2023-05-11T08:00:30;100330.55;;;20.28;63.79
47913;BME280;33676;51.006;17.180;2023-05-11T08:02:59;100333.09;;;20.38;63.85
47913;BME280;33676;51.006;17.180;2023-05-11T08:05:30;100330.45;;;20.49;63.82
47913;BME280;33676;51.006;17.180;2023-05-11T08:08:00;100329.34;;;20.65;63.75
47913;BME280;33676;51.006;17.180;2023-05-11T08:10:29;100331.02;;;20.76;63.67
47913;BME280;33676;51.006;17.180;2023-05-11T08:12:59;100332.64;;;20.89;63.36
47913;BME280;33676;51.006;17.180;2023-05-11T08:15:28;100335.55;;;20.99;63.28
47913;BME280;33676;51.006;17.180;2023-05-11T08:17:56;100332.86;;;21.03;62.90
47913;BME280;33676;51.006;17.180;2023-05-11T08:20:29;100332.65;;;21.08;62.53
47913;BME280;33676;51.006;17.180;2023-05-11T08:23:10;100329.00;;;21.18;62.60
47913;BME280;33676;51.006;17.180;2023-05-11T08:25:52;100328.50;;;21.38;63.08
47913;BME280;33676;51.006;17.180;2023-05-11T08:28:22;100328.25;;;21.64;62.94
47913;BME280;33676;51.006;17.180;2023-05-11T08:30:57;100334.09;;;21.83;62.58
47913;BME280;33676;51.006;17.180;2023-05-11T08:33:26;100335.14;;;22.01;62.47
47913;BME280;33676;51.006;17.180;2023-05-11T08:35:58;100334.95;;;22.17;62.32
47913;BME280;33676;51.006;17.180;2023-05-11T08:38:26;100332.71;;;22.24;61.87
47913;BME280;33676;51.006;17.180;2023-05-11T08:40:55;100334.17;;;22.33;61.50
47913;BME280;33676;51.006;17.180;2023-05-11T08:43:25;100332.09;;;22.42;61.22
47913;BME280;33676;51.006;17.180;2023-05-11T08:45:58;100332.20;;;22.52;60.80
47913;BME280;33676;51.006;17.180;2023-05-11T08:48:29;100329.27;;;22.70;60.99
47913;BME280;33676;51.006;17.180;2023-05-11T08:50:58;100329.67;;;22.87;61.06
47913;BME280;33676;51.006;17.180;2023-05-11T08:53:27;100333.77;;;23.01;60.54
47913;BME280;33676;51.006;17.180;2023-05-11T08:56:00;100332.45;;;23.07;59.85
47913;BME280;33676;51.006;17.180;2023-05-11T08:58:29;100328.14;;;23.13;59.04
47913;BME280;33676;51.006;17.180;2023-05-11T09:00:59;100333.66;;;23.21;59.13
47913;BME280;33676;51.006;17.180;2023-05-11T09:03:28;100336.38;;;23.33;59.32
47913;BME280;33676;51.006;17.180;2023-05-11T09:05:59;100333.86;;;23.48;59.18
47913;BME280;33676;51.006;17.180;2023-05-11T09:08:29;100332.58;;;23.67;59.30
47913;BME280;33676;51.006;17.180;2023-05-11T09:10:59;100327.89;;;23.97;59.54
47913;BME280;33676;51.006;17.180;2023-05-11T09:13:29;100324.73;;;24.15;59.31
47913;BME280;33676;51.006;17.180;2023-05-11T09:15:58;100323.70;;;24.34;59.23
47913;BME280;33676;51.006;17.180;2023-05-11T09:18:26;100323.27;;;24.61;59.10
47913;BME280;33676;51.006;17.180;2023-05-11T09:20:55;100325.37;;;24.86;59.02
47913;BME280;33676;51.006;17.180;2023-05-11T09:23:25;100323.29;;;25.05;58.76
47913;BME280;33676;51.006;17.180;2023-05-11T09:25:54;100324.92;;;25.08;58.13
47913;BME280;33676;51.006;17.180;2023-05-11T09:28:24;100322.98;;;24.99;57.36
47913;BME280;33676;51.006;17.180;2023-05-11T09:30:53;100321.19;;;24.91;56.67
47913;BME280;33676;51.006;17.180;2023-05-11T09:33:29;100319.79;;;24.88;56.18
47913;BME280;33676;51.006;17.180;2023-05-11T09:35:57;100319.38;;;24.87;55.90
47913;BME280;33676;51.006;17.180;2023-05-11T09:38:26;100323.11;;;24.94;56.10
47913;BME280;33676;51.006;17.180;2023-05-11T09:40:57;100322.15;;;25.00;55.84
47913;BME280;33676;51.006;17.180;2023-05-11T09:43:29;100323.33;;;25.04;55.50
47913;BME280;33676;51.006;17.180;2023-05-11T09:45:58;100319.58;;;25.12;55.56
47913;BME280;33676;51.006;17.180;2023-05-11T09:48:35;100322.40;;;25.28;55.61
47913;BME280;33676;51.006;17.180;2023-05-11T09:51:06;100320.04;;;25.38;55.36
47913;BME280;33676;51.006;17.180;2023-05-11T09:53:44;100321.02;;;25.48;55.36
47913;BME280;33676;51.006;17.180;2023-05-11T09:56:13;100321.13;;;25.62;55.14
47913;BME280;33676;51.006;17.180;2023-05-11T09:58:52;100321.67;;;25.94;55.35
47913;BME280;33676;51.006;17.180;2023-05-11T10:01:33;100318.33;;;26.32;55.04
47913;BME280;33676;51.006;17.180;2023-05-11T10:04:03;100316.42;;;26.73;54.87
47913;BME280;33676;51.006;17.180;2023-05-11T10:06:52;100312.02;;;27.14;54.59
47913;BME280;33676;51.006;17.180;2023-05-11T10:09:23;100305.36;;;27.32;53.71
47913;BME280;33676;51.006;17.180;2023-05-11T10:11:54;100306.23;;;27.41;53.41
47913;BME280;33676;51.006;17.180;2023-05-11T10:14:24;100305.52;;;27.48;52.81
47913;BME280;33676;51.006;17.180;2023-05-11T10:16:56;100304.67;;;27.49;52.48
47913;BME280;33676;51.006;17.180;2023-05-11T10:19:26;100303.50;;;27.35;52.07
47913;BME280;33676;51.006;17.180;2023-05-11T10:21:55;100303.98;;;27.23;52.07
47913;BME280;33676;51.006;17.180;2023-05-11T10:24:25;100299.20;;;27.18;52.21
47913;BME280;33676;51.006;17.180;2023-05-11T10:26:55;100298.91;;;27.28;52.48
47913;BME280;33676;51.006;17.180;2023-05-11T10:29:24;100294.90;;;27.54;52.76
47913;BME280;33676;51.006;17.180;2023-05-11T10:31:56;100293.27;;;27.80;52.45
47913;BME280;33676;51.006;17.180;2023-05-11T10:34:27;100289.59;;;28.04;52.13
47913;BME280;33676;51.006;17.180;2023-05-11T10:36:59;100290.10;;;28.32;51.95
47913;BME280;33676;51.006;17.180;2023-05-11T10:39:30;100290.05;;;28.63;51.51
47913;BME280;33676;51.006;17.180;2023-05-11T10:42:22;100284.80;;;28.68;50.32
47913;BME280;33676;51.006;17.180;2023-05-11T11:03:56;100268.21;;;30.92;46.82
47913;BME280;33676;51.006;17.180;2023-05-11T11:06:26;100270.43;;;31.40;46.55
47913;BME280;33676;51.006;17.180;2023-05-11T11:09:06;100268.50;;;31.72;46.17
47913;BME280;33676;51.006;17.180;2023-05-11T11:11:39;100263.80;;;32.10;46.01
47913;BME280;33676;51.006;17.180;2023-05-11T11:14:09;100258.90;;;32.44;45.46
47913;BME280;33676;51.006;17.180;2023-05-11T11:16:38;100259.02;;;32.71;45.32
47913;BME280;33676;51.006;17.180;2023-05-11T11:21:59;100265.73;;;33.38;45.41
47913;BME280;33676;51.006;17.180;2023-05-11T11:27:08;100263.53;;;33.56;44.41
47913;BME280;33676;51.006;17.180;2023-05-11T11:29:38;100263.23;;;33.25;43.87
47913;BME280;33676;51.006;17.180;2023-05-11T11:34:51;100265.42;;;33.12;43.49
47913;BME280;33676;51.006;17.180;2023-05-11T11:37:20;100266.55;;;33.30;43.30
47913;BME280;33676;51.006;17.180;2023-05-11T11:39:51;100269.67;;;33.50;43.23
47913;BME280;33676;51.006;17.180;2023-05-11T11:42:35;100265.27;;;33.71;43.29
47913;BME280;33676;51.006;17.180;2023-05-11T11:46:08;100262.81;;;33.99;43.35
47913;BME280;33676;51.006;17.180;2023-05-11T11:48:38;100263.23;;;34.20;42.80
47913;BME280;33676;51.006;17.180;2023-05-11T11:51:12;100263.78;;;34.36;42.98
47913;BME280;33676;51.006;17.180;2023-05-11T12:01:22;100258.64;;;35.07;42.35
47913;BME280;33676;51.006;17.180;2023-05-11T12:04:44;100259.56;;;35.08;42.05
47913;BME280;33676;51.006;17.180;2023-05-11T12:07:45;100258.05;;;34.34;41.10
47913;BME280;33676;51.006;17.180;2023-05-11T12:10:23;100259.95;;;33.68;41.31
47913;BME280;33676;51.006;17.180;2023-05-11T12:12:52;100261.04;;;33.63;41.35
47913;BME280;33676;51.006;17.180;2023-05-11T12:15:30;100257.34;;;33.71;41.28
47913;BME280;33676;51.006;17.180;2023-05-11T12:18:01;100255.10;;;33.53;40.90
47913;BME280;33676;51.006;17.180;2023-05-11T12:20:31;100255.07;;;33.28;40.57
47913;BME280;33676;51.006;17.180;2023-05-11T12:23:00;100258.88;;;33.03;40.75
47913;BME280;33676;51.006;17.180;2023-05-11T12:25:28;100259.52;;;32.72;41.28
47913;BME280;33676;51.006;17.180;2023-05-11T12:27:57;100252.72;;;32.56;40.70
47913;BME280;33676;51.006;17.180;2023-05-11T12:30:30;100248.41;;;32.33;40.78
47913;BME280;33676;51.006;17.180;2023-05-11T12:33:00;100250.04;;;31.98;41.22
47913;BME280;33676;51.006;17.180;2023-05-11T12:35:33;100250.25;;;31.57;41.60
47913;BME280;33676;51.006;17.180;2023-05-11T12:38:01;100247.77;;;31.08;41.76
47913;BME280;33676;51.006;17.180;2023-05-11T12:40:30;100245.80;;;30.69;41.90
47913;BME280;33676;51.006;17.180;2023-05-11T12:42:59;100246.48;;;30.28;42.07
47913;BME280;33676;51.006;17.180;2023-05-11T12:45:28;100247.27;;;29.82;42.32
47913;BME280;33676;51.006;17.180;2023-05-11T12:47:57;100244.44;;;29.37;42.40
47913;BME280;33676;51.006;17.180;2023-05-11T12:50:26;100243.48;;;28.92;42.55
47913;BME280;33676;51.006;17.180;2023-05-11T12:53:15;100240.48;;;28.58;42.83
47913;BME280;33676;51.006;17.180;2023-05-11T12:55:44;100238.06;;;28.24;43.30
47913;BME280;33676;51.006;17.180;2023-05-11T12:58:15;100231.79;;;28.04;43.37
47913;BME280;33676;51.006;17.180;2023-05-11T13:00:57;100231.02;;;27.94;43.55
47913;BME280;33676;51.006;17.180;2023-05-11T13:03:32;100229.83;;;28.27;43.90
47913;BME280;33676;51.006;17.180;2023-05-11T13:06:12;100226.36;;;28.48;44.10
47913;BME280;33676;51.006;17.180;2023-05-11T13:08:44;100226.09;;;28.56;43.97
47913;BME280;33676;51.006;17.180;2023-05-11T13:11:25;100222.79;;;28.57;44.01
47913;BME280;33676;51.006;17.180;2023-05-11T13:13:55;100220.52;;;28.52;44.23
47913;BME280;33676;51.006;17.180;2023-05-11T13:16:29;100219.80;;;28.44;43.96
47913;BME280;33676;51.006;17.180;2023-05-11T13:19:04;100218.02;;;28.37;43.84
47913;BME280;33676;51.006;17.180;2023-05-11T13:21:33;100218.96;;;28.28;43.98
47913;BME280;33676;51.006;17.180;2023-05-11T13:24:01;100218.48;;;28.20;44.12
47913;BME280;33676;51.006;17.180;2023-05-11T13:26:31;100219.13;;;28.24;44.20
47913;BME280;33676;51.006;17.180;2023-05-11T13:29:00;100215.09;;;28.87;44.64
47913;BME280;33676;51.006;17.180;2023-05-11T13:31:47;100214.41;;;29.84;44.77
47913;BME280;33676;51.006;17.180;2023-05-11T13:34:17;100205.21;;;30.87;44.52
47913;BME280;33676;51.006;17.180;2023-05-11T13:36:46;100200.36;;;31.88;43.96
47913;BME280;33676;51.006;17.180;2023-05-11T13:39:15;100198.15;;;32.79;43.57
47913;BME280;33676;51.006;17.180;2023-05-11T13:41:44;100195.91;;;33.68;43.55
47913;BME280;33676;51.006;17.180;2023-05-11T13:44:13;100196.65;;;34.45;43.02
47913;BME280;33676;51.006;17.180;2023-05-11T13:46:42;100197.05;;;34.78;42.27
47913;BME280;33676;51.006;17.180;2023-05-11T13:49:10;100192.95;;;35.15;42.19
47913;BME280;33676;51.006;17.180;2023-05-11T13:51:39;100201.90;;;34.96;40.55
47913;BME280;33676;51.006;17.180;2023-05-11T13:54:07;100200.38;;;33.58;39.62
47913;BME280;33676;51.006;17.180;2023-05-11T13:56:36;100198.81;;;32.20;39.79
47913;BME280;33676;51.006;17.180;2023-05-11T13:59:04;100203.27;;;31.07;40.12
47913;BME280;33676;51.006;17.180;2023-05-11T14:01:33;100201.23;;;30.00;40.45
47913;BME280;33676;51.006;17.180;2023-05-11T14:04:01;100199.36;;;28.95;41.42
47913;BME280;33676;51.006;17.180;2023-05-11T14:06:33;100196.11;;;28.19;41.95
47913;BME280;33676;51.006;17.180;2023-05-11T14:09:02;100196.13;;;27.77;42.55